createdAt,value
2018-07-27T00:01:13.018Z,7.30
2018-07-27T00:03:49.250Z,8.30
2018-07-27T00:06:23.890Z,8.15
2018-07-27T00:08:58.835Z,8.35
2018-07-27T00:11:33.729Z,8.00
2018-07-27T00:14:08.628Z,6.95
2018-07-27T00:16:43.501Z,7.60
2018-07-27T00:19:18.354Z,7.70
2018-07-27T00:21:53.217Z,7.85
2018-07-27T00:24:28.031Z,7.90
2018-07-27T00:27:02.875Z,8.35
2018-07-27T00:29:37.422Z,8.30
2018-07-27T00:32:12.010Z,8.10
2018-07-27T00:34:47.437Z,8.00
2018-07-27T00:37:22.072Z,7.50
2018-07-27T00:39:56.538Z,9.88
2018-07-27T00:42:31.364Z,7.80
2018-07-27T00:45:06.409Z,7.92
2018-07-27T00:47:42.008Z,9.85
2018-07-27T00:50:16.497Z,6.90
2018-07-27T00:52:52.570Z,7.75
2018-07-27T00:55:28.789Z,8.70
2018-07-27T00:58:04.141Z,9.15
2018-07-27T01:00:39.965Z,8.83
2018-07-27T01:03:14.688Z,7.83
2018-07-27T01:05:49.237Z,8.73
2018-07-27T01:08:26.186Z,8.58
2018-07-27T01:11:00.951Z,9.00
2018-07-27T01:13:35.609Z,8.88
2018-07-27T01:16:10.184Z,9.28
2018-07-27T01:18:44.852Z,7.35
2018-07-27T01:21:19.534Z,9.10
2018-07-27T01:23:54.296Z,10.38
2018-07-27T01:26:28.795Z,7.55
2018-07-27T01:29:03.533Z,8.50
2018-07-27T01:31:38.220Z,7.65
2018-07-27T01:34:13.141Z,7.50
2018-07-27T01:36:50.549Z,9.78
2018-07-27T01:39:26.595Z,8.30
2018-07-27T01:42:02.601Z,7.97
2018-07-27T01:44:37.283Z,9.08
2018-07-27T01:47:11.698Z,8.75
2018-07-27T01:49:46.598Z,9.15
2018-07-27T01:52:21.319Z,9.60
2018-07-27T01:54:55.973Z,7.80
2018-07-27T01:57:30.509Z,9.60
2018-07-27T02:00:06.606Z,7.95
2018-07-27T02:02:41.212Z,8.03
2018-07-27T02:05:16.079Z,8.68
2018-07-27T02:07:51.740Z,8.70
2018-07-27T02:10:26.511Z,8.93
2018-07-27T02:13:01.182Z,8.88
2018-07-27T02:15:35.791Z,8.55
2018-07-27T02:18:10.661Z,7.92
2018-07-27T02:20:45.280Z,8.53
2018-07-27T02:23:19.993Z,8.45
2018-07-27T02:25:54.489Z,8.85
2018-07-27T02:28:28.971Z,7.87
2018-07-27T02:31:03.512Z,9.30
2018-07-27T02:33:38.334Z,8.85
2018-07-27T02:36:15.529Z,8.60
2018-07-27T02:38:49.999Z,8.10
2018-07-27T02:41:25.310Z,9.50
2018-07-27T02:44:00.382Z,10.78
2018-07-27T02:46:35.098Z,8.30
2018-07-27T02:49:09.817Z,12.98
2018-07-27T02:51:46.072Z,10.95
2018-07-27T02:54:20.630Z,7.83
2018-07-27T02:56:55.134Z,9.43
2018-07-27T02:59:29.970Z,9.50
2018-07-27T03:02:04.671Z,9.28
2018-07-27T03:04:40.290Z,8.85
2018-07-27T03:07:14.940Z,9.48
2018-07-27T03:09:49.805Z,7.60
2018-07-27T03:12:25.719Z,9.33
2018-07-27T03:15:00.426Z,7.03
2018-07-27T03:17:34.897Z,6.60
2018-07-27T03:20:09.748Z,8.18
2018-07-27T03:22:46.031Z,6.90
2018-07-27T03:25:20.774Z,11.93
2018-07-27T03:27:55.358Z,10.65
2018-07-27T03:30:30.101Z,10.75
2018-07-27T03:33:04.860Z,10.55
2018-07-27T03:35:39.598Z,8.78
2018-07-27T03:38:17.617Z,8.73
2018-07-27T03:40:53.638Z,8.65
2018-07-27T03:43:28.186Z,7.80
2018-07-27T03:46:02.794Z,8.40
2018-07-27T03:48:37.323Z,8.55
2018-07-27T03:51:11.785Z,9.70
2018-07-27T03:53:48.257Z,9.18
2018-07-27T03:56:22.956Z,9.38
2018-07-27T03:58:57.618Z,8.30
2018-07-27T04:01:32.321Z,7.35
2018-07-27T04:04:07.055Z,8.53
2018-07-27T04:06:41.595Z,9.83
2018-07-27T04:09:16.327Z,10.20
2018-07-27T04:11:51.056Z,8.55
2018-07-27T04:14:25.743Z,9.15
2018-07-27T04:17:00.234Z,8.08
2018-07-27T04:19:34.796Z,9.20
2018-07-27T04:22:09.372Z,8.70
2018-07-27T04:24:43.856Z,10.08
2018-07-27T04:27:18.501Z,7.70
2018-07-27T04:29:54.561Z,8.95
2018-07-27T04:32:29.340Z,7.92
2018-07-27T04:35:04.073Z,7.37
2018-07-27T04:37:38.614Z,8.28
2018-07-27T04:40:13.309Z,8.60
2018-07-27T04:42:48.291Z,9.15
2018-07-27T04:45:22.966Z,8.68
2018-07-27T04:47:57.667Z,8.85
2018-07-27T04:50:32.420Z,8.75
2018-07-27T04:53:07.220Z,8.88
2018-07-27T04:55:41.728Z,9.08
2018-07-27T04:58:16.367Z,8.25
2018-07-27T05:00:50.871Z,8.63
2018-07-27T05:03:25.406Z,9.75
2018-07-27T05:06:00.891Z,9.70
2018-07-27T05:09:39.387Z,9.33
2018-07-27T05:12:14.130Z,8.50
2018-07-27T05:14:49.479Z,10.90
2018-07-27T05:17:25.393Z,10.35
2018-07-27T05:20:00.097Z,9.20
2018-07-27T05:22:35.305Z,9.45
2018-07-27T05:25:10.777Z,9.63
2018-07-27T05:27:45.506Z,9.10
2018-07-27T05:30:20.624Z,8.58
2018-07-27T05:32:55.021Z,9.68
2018-07-27T05:35:29.465Z,8.48
2018-07-27T05:38:04.712Z,8.43
2018-07-27T05:40:40.526Z,7.80
2018-07-27T05:43:21.304Z,8.63
2018-07-27T05:45:57.540Z,9.48
2018-07-27T05:48:32.102Z,7.12
2018-07-27T05:51:06.721Z,7.00
2018-07-27T05:53:43.171Z,7.95
2018-07-27T05:56:17.791Z,6.87
2018-07-27T05:58:53.026Z,8.43
2018-07-27T06:01:27.667Z,8.68
2018-07-27T06:04:02.998Z,7.30
2018-07-27T06:06:37.572Z,7.20
2018-07-27T06:09:12.165Z,6.72
2018-07-27T06:11:46.749Z,7.83
2018-07-27T06:14:21.483Z,7.53
2018-07-27T06:16:56.425Z,8.45
2018-07-27T06:19:31.884Z,7.28
2018-07-27T06:22:06.555Z,7.80
2018-07-27T06:24:51.181Z,8.13
2018-07-27T06:27:26.187Z,7.58
2018-07-27T06:30:00.860Z,7.47
2018-07-27T06:32:35.486Z,7.87
2018-07-27T06:35:10.091Z,6.95
2018-07-27T06:37:44.607Z,7.40
2018-07-27T06:40:21.394Z,7.10
2018-07-27T06:42:56.142Z,6.60
2018-07-27T06:45:31.312Z,7.50
2018-07-27T06:48:07.275Z,7.72
2018-07-27T06:50:41.797Z,6.67
2018-07-27T06:53:16.391Z,8.15
2018-07-27T06:55:54.339Z,7.17
2018-07-27T06:58:29.787Z,7.50
2018-07-27T07:01:04.548Z,6.67
2018-07-27T07:03:40.815Z,7.85
2018-07-27T07:06:15.426Z,6.70
2018-07-27T07:08:49.840Z,7.08
2018-07-27T07:11:24.334Z,6.60
2018-07-27T07:13:59.754Z,8.05
2018-07-27T07:16:35.404Z,7.10
2018-07-27T07:19:10.762Z,7.25
2018-07-27T07:21:47.333Z,7.92
2018-07-27T07:24:24.281Z,6.70
2018-07-27T07:26:59.756Z,6.97
2018-07-27T07:29:34.353Z,6.85
2018-07-27T07:32:09.039Z,6.80
2018-07-27T07:34:43.812Z,8.08
2018-07-27T07:37:18.662Z,6.45
2018-07-27T07:39:53.085Z,6.40
2018-07-27T07:42:27.813Z,5.87
2018-07-27T07:45:04.313Z,6.22
2018-07-27T07:47:40.745Z,6.20
2018-07-27T07:50:15.397Z,5.70
2018-07-27T07:52:50.362Z,5.65
2018-07-27T07:55:24.961Z,6.60
2018-07-27T07:57:59.484Z,5.20
2018-07-27T08:00:34.318Z,6.40
2018-07-27T08:03:08.903Z,5.75
2018-07-27T08:05:43.513Z,7.42
2018-07-27T08:08:18.104Z,5.60
2018-07-27T08:10:52.857Z,5.50
2018-07-27T08:13:27.510Z,6.30
2018-07-27T08:16:02.155Z,4.90
2018-07-27T08:18:36.670Z,6.25
2018-07-27T08:21:11.249Z,5.33
2018-07-27T08:23:45.975Z,5.70
2018-07-27T08:26:46.595Z,5.47
2018-07-27T08:29:23.277Z,5.70
2018-07-27T08:31:58.196Z,6.08
2018-07-27T08:34:35.002Z,5.10
2018-07-27T08:37:11.618Z,6.87
2018-07-27T08:39:46.126Z,6.03
2018-07-27T08:42:21.026Z,6.97
2018-07-27T08:44:57.163Z,6.12
2018-07-27T08:47:34.094Z,6.00
2018-07-27T08:50:08.881Z,4.87
2018-07-27T08:52:44.156Z,5.53
2018-07-27T08:55:22.745Z,5.58
2018-07-27T08:57:57.192Z,5.90
2018-07-27T09:00:43.233Z,5.47
2018-07-27T09:03:19.476Z,5.28
2018-07-27T09:05:53.986Z,5.80
2018-07-27T09:08:28.377Z,5.50
2018-07-27T09:11:04.699Z,7.30
2018-07-27T09:13:40.694Z,5.25
2018-07-27T09:16:15.305Z,5.20
2018-07-27T09:18:53.365Z,4.85
2018-07-27T09:21:29.150Z,5.35
2018-07-27T09:24:03.888Z,5.10
2018-07-27T09:26:41.182Z,6.70
2018-07-27T09:29:19.781Z,4.45
2018-07-27T09:31:56.600Z,5.95
2018-07-27T09:34:31.192Z,5.80
2018-07-27T09:37:06.853Z,5.95
2018-07-27T09:39:41.459Z,5.50
2018-07-27T09:42:16.155Z,5.15
2018-07-27T09:44:50.769Z,4.80
2018-07-27T09:47:25.474Z,4.20
2018-07-27T09:50:00.071Z,5.33
2018-07-27T09:52:35.145Z,4.30
2018-07-27T09:55:10.523Z,5.40
2018-07-27T09:57:45.594Z,4.47
2018-07-27T10:00:25.341Z,4.30
2018-07-27T10:02:59.823Z,4.05
2018-07-27T10:05:34.586Z,4.10
2018-07-27T10:08:09.916Z,4.30
2018-07-27T10:10:44.440Z,4.35
2018-07-27T10:13:20.979Z,4.00
2018-07-27T10:15:56.149Z,3.87
2018-07-27T10:18:30.693Z,4.67
2018-07-27T10:21:09.689Z,3.40
2018-07-27T10:23:43.999Z,4.55
2018-07-27T10:26:19.941Z,4.45
2018-07-27T10:28:54.744Z,3.90
2018-07-27T10:31:31.073Z,3.30
2018-07-27T10:34:05.725Z,3.20
2018-07-27T10:36:40.050Z,3.83
2018-07-27T10:39:14.461Z,3.55
2018-07-27T10:41:48.933Z,3.90
2018-07-27T10:44:23.643Z,3.27
2018-07-27T10:46:58.033Z,4.37
2018-07-27T10:49:32.580Z,4.20
2018-07-27T10:52:07.177Z,4.25
2018-07-27T10:54:41.659Z,3.92
2018-07-27T10:57:16.104Z,3.22
2018-07-27T10:59:50.834Z,3.12
2018-07-27T11:02:25.454Z,3.30
2018-07-27T11:04:59.962Z,3.20
2018-07-27T11:07:34.566Z,3.50
2018-07-27T11:10:10.496Z,4.17
2018-07-27T11:12:45.066Z,3.65
2018-07-27T11:15:19.511Z,2.80
2018-07-27T11:17:54.150Z,2.90
2018-07-27T11:20:28.842Z,3.40
2018-07-27T11:23:03.478Z,3.62
2018-07-27T11:25:38.059Z,3.37
2018-07-27T11:28:14.233Z,3.15
2018-07-27T11:30:49.055Z,4.10
2018-07-27T11:33:23.825Z,4.25
2018-07-27T11:35:58.504Z,3.40
2018-07-27T11:38:33.139Z,4.37
2018-07-27T11:41:10.545Z,3.72
2018-07-27T11:43:44.843Z,3.33
2018-07-27T11:46:19.388Z,3.33
2018-07-27T11:48:54.031Z,3.22
2018-07-27T11:51:28.634Z,3.58
2018-07-27T11:54:03.142Z,4.50
2018-07-27T11:56:37.907Z,3.80
2018-07-27T11:59:12.429Z,4.08
2018-07-27T12:01:48.011Z,3.90
2018-07-27T12:04:22.574Z,3.33
2018-07-27T12:06:57.831Z,3.60
2018-07-27T12:09:32.623Z,3.55
2018-07-27T12:12:07.315Z,4.00
2018-07-27T12:14:42.275Z,3.07
2018-07-27T12:17:17.067Z,3.30
2018-07-27T12:19:51.315Z,3.70
2018-07-27T12:22:25.839Z,3.35
2018-07-27T12:25:00.421Z,3.35
2018-07-27T12:27:35.078Z,3.60
2018-07-27T12:30:09.746Z,3.25
2018-07-27T12:32:44.273Z,3.95
2018-07-27T12:35:18.864Z,3.70
2018-07-27T12:37:55.607Z,3.80
2018-07-27T12:40:30.017Z,3.50
2018-07-27T12:43:04.650Z,3.02
2018-07-27T12:45:39.189Z,3.20
2018-07-27T12:48:13.747Z,4.10
2018-07-27T12:50:48.341Z,3.20
2018-07-27T12:53:22.825Z,3.17
2018-07-27T12:55:57.532Z,3.52
2018-07-27T12:58:31.983Z,3.15
2018-07-27T13:01:06.636Z,3.37
2018-07-27T13:03:41.382Z,3.20
2018-07-27T13:06:15.926Z,3.47
2018-07-27T13:08:50.341Z,3.10
2018-07-27T13:11:25.521Z,4.00
2018-07-27T13:14:00.156Z,3.17
2018-07-27T13:16:34.657Z,3.00
2018-07-27T13:19:10.509Z,3.65
2018-07-27T13:21:45.273Z,3.40
2018-07-27T13:24:19.721Z,3.15
2018-07-27T13:26:54.405Z,2.83
2018-07-27T13:29:28.894Z,3.10
2018-07-27T13:32:03.283Z,3.87
2018-07-27T13:34:44.429Z,3.30
2018-07-27T13:37:19.948Z,3.27
2018-07-27T13:42:31.569Z,3.50
2018-07-27T13:45:06.045Z,3.30
2018-07-27T13:47:40.401Z,3.40
2018-07-27T13:50:15.083Z,4.97
2018-07-27T13:52:49.658Z,3.70
2018-07-27T13:55:24.066Z,3.00
2018-07-27T13:57:58.740Z,3.53
2018-07-27T14:00:33.254Z,3.27
2018-07-27T14:03:08.105Z,3.57
2018-07-27T14:05:42.784Z,3.70
2018-07-27T14:08:17.390Z,4.53
2018-07-27T14:10:53.428Z,3.57
2018-07-27T14:13:27.923Z,3.67
2018-07-27T14:16:02.619Z,3.80
2018-07-27T14:18:37.028Z,3.83
2018-07-27T14:21:11.556Z,3.03
2018-07-27T14:23:46.580Z,3.47
2018-07-27T14:26:21.714Z,3.73
2018-07-27T14:28:56.164Z,3.10
2018-07-27T14:31:30.740Z,4.03
2018-07-27T14:34:05.474Z,3.17
2018-07-27T14:36:39.803Z,3.13
2018-07-27T14:39:15.623Z,3.70
2018-07-27T14:41:50.040Z,2.90
2018-07-27T14:44:24.850Z,3.67
2018-07-27T14:46:59.370Z,3.47
2018-07-27T14:49:38.637Z,3.43
2018-07-27T14:52:14.474Z,4.80
2018-07-27T14:54:54.614Z,4.63
2018-07-27T14:57:31.888Z,3.93
2018-07-27T15:00:08.195Z,3.20
2018-07-27T15:06:18.534Z,5.00
2018-07-27T15:08:55.887Z,3.00
2018-07-27T15:11:34.888Z,2.93
2018-07-27T15:14:10.451Z,3.20
2018-07-27T15:16:50.059Z,4.13
2018-07-27T15:19:29.714Z,3.00
2018-07-27T15:22:04.977Z,3.20
2018-07-27T15:24:43.838Z,3.83
2018-07-27T15:27:19.184Z,4.07
2018-07-27T15:29:54.958Z,3.80
2018-07-27T15:32:30.301Z,3.60
2018-07-27T15:35:08.919Z,3.00
2018-07-27T15:37:47.075Z,3.33
2018-07-27T15:40:22.581Z,3.30
2018-07-27T15:43:02.277Z,3.50
2018-07-27T15:45:38.346Z,3.43
2018-07-27T15:48:14.385Z,3.00
2018-07-27T15:50:51.385Z,3.30
2018-07-27T15:53:28.700Z,3.30
2018-07-27T15:56:04.632Z,5.50
2018-07-27T15:58:40.071Z,4.33
2018-07-27T16:01:15.615Z,3.47
2018-07-27T16:03:52.072Z,3.03
2018-07-27T16:06:27.303Z,3.10
2018-07-27T16:09:02.341Z,3.50
2018-07-27T16:11:37.431Z,3.50
2018-07-27T16:14:18.278Z,3.40
2018-07-27T16:16:55.621Z,3.83
2018-07-27T16:19:32.515Z,3.83
2018-07-27T16:22:08.044Z,3.40
2018-07-27T16:24:47.147Z,3.20
2018-07-27T16:27:28.909Z,3.37
2018-07-27T16:30:05.749Z,3.40
2018-07-27T16:32:41.856Z,4.90
2018-07-27T16:35:20.382Z,4.40
2018-07-27T16:37:55.636Z,3.20
2018-07-27T16:40:32.106Z,3.10
2018-07-27T16:43:07.461Z,3.03
2018-07-27T16:45:43.707Z,3.40
2018-07-27T16:48:21.151Z,3.27
2018-07-27T16:50:56.525Z,3.70
2018-07-27T16:53:33.629Z,3.03
2018-07-27T16:56:08.295Z,3.20
2018-07-27T16:58:44.561Z,2.87
2018-07-27T17:01:21.216Z,2.70
2018-07-27T17:03:59.397Z,2.77
2018-07-27T17:06:35.324Z,3.17
2018-07-27T17:09:10.971Z,3.13
2018-07-27T17:11:46.527Z,4.70
2018-07-27T17:14:24.227Z,3.10
2018-07-27T17:17:00.852Z,4.33
2018-07-27T17:19:36.497Z,2.80
2018-07-27T17:22:12.673Z,3.00
2018-07-27T17:24:48.215Z,2.80
2018-07-27T17:27:27.443Z,4.00
2018-07-27T17:30:03.417Z,3.20
2018-07-27T17:32:38.672Z,2.73
2018-07-27T17:35:13.658Z,2.70
2018-07-27T17:37:49.176Z,3.17
2018-07-27T17:40:25.182Z,4.30
2018-07-27T17:43:01.833Z,3.87
2018-07-27T17:45:36.685Z,3.70
2018-07-27T17:48:15.511Z,3.40
2018-07-27T17:50:51.070Z,3.60
2018-07-27T17:53:31.213Z,3.27
2018-07-27T17:56:07.305Z,3.80
2018-07-27T17:58:42.394Z,3.40
2018-07-27T18:01:17.479Z,4.60
2018-07-27T18:03:52.994Z,3.50
2018-07-27T18:06:29.705Z,4.77
2018-07-27T18:09:07.838Z,3.53
2018-07-27T18:11:45.025Z,3.83
2018-07-27T18:14:21.518Z,4.30
2018-07-27T18:16:57.126Z,6.13
2018-07-27T18:19:32.549Z,3.57
2018-07-27T18:22:08.369Z,3.50
2018-07-27T18:24:45.140Z,3.77
2018-07-27T18:27:20.071Z,4.73
2018-07-27T18:29:55.124Z,5.10
2018-07-27T18:32:30.624Z,5.83
2018-07-27T18:35:09.204Z,4.33
2018-07-27T18:37:46.300Z,3.90
2018-07-27T18:40:23.007Z,4.87
2018-07-27T18:43:00.123Z,4.97
2018-07-27T18:45:38.032Z,3.75
2018-07-27T18:48:17.787Z,4.70
2018-07-27T18:50:55.189Z,5.40
2018-07-27T18:53:33.487Z,4.73
2018-07-27T18:56:14.102Z,4.73
2018-07-27T18:58:50.840Z,4.33
2018-07-27T19:01:28.908Z,4.58
2018-07-27T19:04:06.124Z,4.58
2018-07-27T19:06:45.906Z,5.05
2018-07-27T19:09:22.195Z,4.30
2018-07-27T19:12:00.788Z,5.50
2018-07-27T19:14:37.448Z,4.60
2018-07-27T19:17:18.451Z,4.50
2018-07-27T19:19:56.792Z,5.37
2018-07-27T19:22:35.432Z,5.97
2018-07-27T19:25:12.080Z,4.70
2018-07-27T19:27:48.834Z,4.97
2018-07-27T19:30:25.879Z,4.75
2018-07-27T19:33:08.566Z,4.92
2018-07-27T19:35:44.733Z,5.03
2018-07-27T19:38:25.395Z,5.15
2018-07-27T19:41:01.459Z,5.40
2018-07-27T19:43:38.653Z,5.10
2018-07-27T19:46:15.057Z,5.67
2018-07-27T19:48:51.775Z,4.80
2018-07-27T19:51:27.011Z,5.10
2018-07-27T19:54:06.078Z,5.53
2018-07-27T19:56:54.731Z,5.47
2018-07-27T19:59:35.618Z,5.45
2018-07-27T20:02:12.216Z,5.60
2018-07-27T20:04:53.439Z,5.87
2018-07-27T20:07:31.490Z,5.20
2018-07-27T20:10:08.621Z,6.35
2018-07-27T20:12:46.269Z,7.85
2018-07-27T20:15:26.371Z,7.03
2018-07-27T20:18:04.355Z,8.53
2018-07-27T20:20:40.552Z,12.55
2018-07-27T20:23:20.119Z,9.50
2018-07-27T20:25:57.577Z,6.90
2018-07-27T20:28:34.076Z,6.60
2018-07-27T20:31:09.510Z,7.17
2018-07-27T20:33:52.191Z,7.20
2018-07-27T20:36:28.841Z,8.50
2018-07-27T20:39:14.137Z,7.72
2018-07-27T20:41:49.236Z,7.65
2018-07-27T20:44:26.874Z,8.63
2018-07-27T20:47:01.250Z,8.40
2018-07-27T20:49:35.605Z,9.15
2018-07-27T20:52:10.038Z,7.53
2018-07-27T20:54:44.503Z,7.12
2018-07-27T20:57:18.849Z,8.35
2018-07-27T20:59:53.514Z,8.05
2018-07-27T21:02:27.966Z,9.73
2018-07-27T21:05:02.398Z,8.25
2018-07-27T21:07:36.531Z,8.38
2018-07-27T21:10:11.893Z,8.23
2018-07-27T21:12:47.014Z,8.43
2018-07-27T21:15:21.598Z,8.50
2018-07-27T21:17:56.123Z,8.50
2018-07-27T21:20:30.626Z,9.08
2018-07-27T21:23:05.053Z,9.15
2018-07-27T21:25:39.518Z,9.18
2018-07-27T21:28:13.906Z,7.67
2018-07-27T21:30:48.351Z,7.87
2018-07-27T21:33:23.581Z,8.25
2018-07-27T21:35:58.098Z,8.00
2018-07-27T21:38:32.418Z,8.60
2018-07-27T21:41:06.722Z,7.70
2018-07-27T21:43:41.041Z,7.70
2018-07-27T21:46:15.418Z,7.42
2018-07-27T21:48:49.897Z,7.53
2018-07-27T21:51:24.322Z,7.10
2018-07-27T21:53:58.843Z,7.67
2018-07-27T21:56:33.267Z,7.95
2018-07-27T21:59:07.705Z,8.08
2018-07-27T22:01:42.217Z,7.53
2018-07-27T22:04:16.593Z,6.92
2018-07-27T22:06:51.019Z,7.15
2018-07-27T22:09:26.278Z,8.20
2018-07-27T22:12:00.715Z,8.23
2018-07-27T22:14:36.089Z,7.30
2018-07-27T22:17:10.648Z,7.35
2018-07-27T22:19:45.024Z,7.33
2018-07-27T22:22:25.720Z,7.65
2018-07-27T22:25:00.171Z,7.03
2018-07-27T22:27:34.522Z,6.87
2018-07-27T22:30:09.975Z,7.15
2018-07-27T22:32:44.381Z,7.55
2018-07-27T22:35:19.285Z,7.60
2018-07-27T22:37:53.742Z,8.10
2018-07-27T22:40:28.146Z,7.90
2018-07-27T22:43:02.659Z,7.90
2018-07-27T22:45:37.093Z,7.15
2018-07-27T22:48:11.485Z,7.87
2018-07-27T22:50:45.766Z,6.85
2018-07-27T22:53:20.050Z,7.50
2018-07-27T22:55:54.347Z,7.17
2018-07-27T22:58:28.722Z,7.45
2018-07-27T23:01:03.050Z,7.92
2018-07-27T23:03:37.498Z,7.53
2018-07-27T23:06:11.770Z,7.50
2018-07-27T23:08:46.229Z,7.40
2018-07-27T23:11:20.478Z,7.45
2018-07-27T23:13:54.865Z,7.50
2018-07-27T23:16:29.323Z,7.15
2018-07-27T23:19:03.768Z,7.83
2018-07-27T23:21:38.194Z,7.22
2018-07-27T23:24:12.626Z,7.20
2018-07-27T23:26:47.389Z,7.58
2018-07-27T23:29:21.794Z,8.03
2018-07-27T23:31:56.255Z,8.60
2018-07-27T23:34:30.738Z,8.53
2018-07-27T23:37:05.198Z,7.62
2018-07-27T23:39:39.690Z,8.73
2018-07-27T23:42:14.011Z,8.45
2018-07-27T23:44:48.282Z,8.23
2018-07-27T23:47:22.615Z,8.13
2018-07-27T23:49:56.898Z,8.13
2018-07-27T23:52:31.217Z,7.70
2018-07-27T23:55:05.642Z,7.67
2018-07-27T23:57:40.025Z,7.90
